EDT,Max TemperatureF,Mean TemperatureF,Min TemperatureF,Max Dew PointF,MeanDew PointF,Min DewpointF,Max Humidity, Mean Humidity, Min Humidity, Max Sea Level PressureIn, Mean Sea Level PressureIn, Min Sea Level PressureIn, Max VisibilityMiles, Mean VisibilityMiles, Min VisibilityMiles, Max Wind SpeedMPH, Mean Wind SpeedMPH, Max Gust SpeedMPH,PrecipitationIn, CloudCover, Events, WindDirDegrees
2013-3-1,57,47,36,32,30,28,75,55,35,29.91,29.87,29.82,10,10,10,13,6,17,0.00,4,,313
2013-3-2,53,43,32,33,29,27,75,58,41,29.92,29.87,29.81,10,10,10,13,5,16,0.00,5,,328
2013-3-3,48,40,32,27,24,21,75,56,36,29.96,29.90,29.85,10,10,10,16,6,24,0.00,2,,318
2013-3-4,50,40,30,28,19,16,75,51,26,30.10,30.05,29.96,10,10,10,18,7,25,0.00,0,,290
2013-3-5,66,48,30,54,34,22,70,49,27,30.13,29.96,29.64,10,10,10,15,5,21,0.03,5,Rain,193
2013-3-6,61,52,42,55,38,26,84,63,42,29.92,29.66,29.49,10,10,10,36,19,51,0.05,7,Rain,285
2013-3-7,56,49,41,31,29,26,67,51,35,30.19,30.09,29.94,10,10,10,24,13,33,0.00,2,,331
2013-3-8,56,46,35,28,26,23,70,50,29,30.23,30.17,30.10,10,10,10,25,12,36,0.00,0,,328
2013-3-9,63,50,37,34,30,27,82,56,30,30.31,30.27,30.23,10,10,10,17,7,22,0.00,0,,352
2013-3-10,65,48,30,44,34,22,92,56,20,30.33,30.30,30.26,10,10,10,13,4,15,0.00,0,,116
2013-3-11,73,57,40,54,47,40,96,70,44,30.27,30.16,30.01,10,10,10,17,7,23,0.00,4,,155
2013-3-12,71,64,57,63,60,45,93,74,55,30.01,29.88,29.78,10,9,1,14,8,20,0.85,7,Rain,194
2013-3-13,61,54,46,37,32,25,66,47,27,30.07,30.00,29.92,10,10,10,20,9,30,0.00,4,,330
2013-3-14,53,44,35,32,22,19,70,49,28,30.22,30.15,30.09,10,10,10,20,9,30,0.00,1,,318
2013-3-15,63,47,30,35,27,17,85,52,19,30.21,30.09,29.96,10,10,10,15,7,21,0.00,0,,238
2013-3-16,81,66,50,52,44,36,60,45,30,29.95,29.83,29.71,10,10,10,17,10,24,0.00,1,,229
2013-3-17,66,57,47,52,45,39,93,71,48,30.18,30.02,29.86,10,10,10,20,10,24,0.00,4,,68
2013-3-18,65,56,47,54,48,41,93,78,63,30.17,30.05,29.92,10,10,7,14,6,18,T,7,,61
2013-3-19,70,62,53,56,49,26,93,63,32,29.98,29.86,29.77,10,8,1,18,8,24,0.08,5,Rain,286
2013-3-20,58,48,37,35,19,9,79,47,15,30.12,29.99,29.83,10,10,10,14,6,20,0.00,4,,331
2013-3-21,52,42,32,33,27,13,89,61,33,29.96,29.78,29.71,10,10,10,20,8,25,0.00,2,,329
2013-3-22,53,40,26,31,17,11,65,43,20,30.10,30.03,29.97,10,10,10,14,6,21,0.00,0,,278
2013-3-23,58,47,35,33,30,25,82,58,33,30.05,30.01,29.94,10,10,10,7,3,9,0.00,3,,276
2013-3-24,51,44,36,48,42,33,93,82,71,29.96,29.68,29.49,10,8,2,24,9,30,0.16,7,Rain,53
2013-3-25,50,45,39,41,37,25,96,69,42,29.81,29.61,29.52,10,8,1,23,10,32,T,7,Rain,271
2013-3-26,51,42,33,34,29,25,75,58,41,30.08,29.94,29.82,10,10,10,14,7,20,0.00,4,,271
2013-3-27,57,47,36,32,26,22,70,49,27,30.21,30.14,30.09,10,10,10,18,8,25,0.00,1,,300
2013-3-28,57,46,34,33,26,22,79,53,27,30.27,30.20,30.15,10,10,10,17,6,25,0.00,2,,311
2013-3-29,62,47,31,37,29,24,85,55,25,30.33,30.27,30.20,10,10,10,17,5,25,0.00,0,,302
2013-3-30,68,56,43,40,37,30,76,53,29,30.25,30.19,30.14,10,10,10,12,5,16,0.00,5,,227
2013-3-31,75,60,44,56,49,40,86,66,46,30.15,29.99,29.85,10,10,3,20,8,25,T,5,Rain,192